Check out our new PWSWeather beta!
PWSweather.com
Personal Weather Stations
Station Observations
719732
Ponferrada, PonferradaES 24411

PonferradaPonferradaES 24411

Lat: 42.5728, Lon: -6.6425

Elevation: 1676

Station Type: PCE-FWS 20 con garita Ambient Weather SRS100LX

www.meteo.spyfly.es

High Low Average
Temperature 61.5°F16.4°C 39.6°F4.2°C 48.5°F9.2°C
Dew Point 53.3°F11.8°C 37.2°F2.9°C 42.9°F6.1°C
Winds 11.4 mph 18.3 kmh Calm Calm 3.0 mph S4.8 kmh S
Wind Gusts 16.8 mph27.0 kmh -- 6.0 mph9.7 kmh
Humidity 99% 48% 83%
Pressure 30.06 in1017.9 mb 29.90 in1012.5 mb -
Precipitation 0.07 in1.8 mm - -
Hour Temp Dew Point Humidity Winds Wind Gusts Pressure Precip Precip Rate Daily Precip Total
12:00 AM 43.9°F6.6°C 42.8°F6.0°C 96% Calm Calm 3.1 mph5.0 kmh 30.02 in1016.6 mb 0.01 in0.3 mm 0.00 in0.0 mm 0.07 in1.8 mm
12:05 AM 43.9°F6.6°C 42.8°F6.0°C 96% Calm Calm 1.6 mph2.6 kmh 30.02 in1016.6 mb 0.01 in0.3 mm 0.00 in0.0 mm 0.07 in1.8 mm
12:10 AM 43.9°F6.6°C 42.8°F6.0°C 96% Calm Calm 2.2 mph3.5 kmh 30.01 in1016.3 mb 0.01 in0.3 mm 0.00 in0.0 mm 0.07 in1.8 mm
12:15 AM 43.9°F6.6°C 42.8°F6.0°C 96% Calm Calm 2.2 mph3.5 kmh 30.01 in1016.3 mb 0.01 in0.3 mm 0.00 in0.0 mm 0.07 in1.8 mm
12:20 AM 43.9°F6.6°C 42.8°F6.0°C 96% 0.7 mph WNW1.1 kmh WNW 2.2 mph3.5 kmh 30.01 in1016.3 mb 0.01 in0.3 mm 0.00 in0.0 mm 0.07 in1.8 mm
12:25 AM 43.9°F6.6°C 42.8°F6.0°C 96% Calm Calm 2.2 mph3.5 kmh 29.99 in1015.6 mb 0.01 in0.3 mm 0.00 in0.0 mm 0.07 in1.8 mm
12:30 AM 43.9°F6.6°C 42.8°F6.0°C 96% Calm Calm 2.2 mph3.5 kmh 29.98 in1015.2 mb 0.01 in0.3 mm 0.00 in0.0 mm 0.07 in1.8 mm
12:35 AM 43.9°F6.6°C 42.8°F6.0°C 96% 0.7 mph SW1.1 kmh SW 2.2 mph3.5 kmh 29.98 in1015.2 mb 0.01 in0.3 mm 0.00 in0.0 mm 0.07 in1.8 mm
12:40 AM 43.9°F6.6°C 42.8°F6.0°C 96% Calm Calm 2.2 mph3.5 kmh 29.97 in1014.9 mb 0.01 in0.3 mm 0.00 in0.0 mm 0.07 in1.8 mm
12:45 AM 43.7°F6.5°C 42.6°F5.9°C 96% 1.6 mph WSW2.6 kmh WSW 2.2 mph3.5 kmh 29.98 in1015.2 mb 0.01 in0.3 mm 0.00 in0.0 mm 0.07 in1.8 mm
12:50 AM 43.7°F6.5°C 42.9°F6.1°C 97% 2.2 mph N3.5 kmh N 3.8 mph6.1 kmh 29.98 in1015.2 mb 0.00 in0.0 mm 0.00 in0.0 mm 0.07 in1.8 mm
12:55 AM 43.7°F6.5°C 42.9°F6.1°C 97% 2.2 mph N3.5 kmh N 5.4 mph8.7 kmh 29.99 in1015.6 mb 0.00 in0.0 mm 0.00 in0.0 mm 0.07 in1.8 mm
01:00 AM 43.5°F6.4°C 42.7°F5.9°C 97% 0.7 mph N1.1 kmh N 5.4 mph8.7 kmh 29.98 in1015.2 mb 0.00 in0.0 mm 0.00 in0.0 mm 0.01 in0.3 mm
01:05 AM 43.5°F6.4°C 42.7°F5.9°C 97% 1.6 mph N2.6 kmh N 3.8 mph6.1 kmh 29.99 in1015.6 mb 0.00 in0.0 mm 0.00 in0.0 mm 0.01 in0.3 mm
01:10 AM 43.5°F6.4°C 42.7°F5.9°C 97% Calm Calm 3.1 mph5.0 kmh 29.98 in1015.2 mb 0.00 in0.0 mm 0.00 in0.0 mm 0.01 in0.3 mm
01:15 AM 43.5°F6.4°C 42.7°F5.9°C 97% Calm Calm 2.2 mph3.5 kmh 29.99 in1015.6 mb 0.00 in0.0 mm 0.00 in0.0 mm 0.01 in0.3 mm
01:20 AM 43.5°F6.4°C 42.7°F5.9°C 97% Calm Calm -- 29.99 in1015.6 mb 0.00 in0.0 mm 0.00 in0.0 mm 0.01 in0.3 mm
01:25 AM 43.5°F6.4°C 42.7°F5.9°C 97% Calm Calm 0.7 mph1.1 kmh 29.99 in1015.6 mb 0.00 in0.0 mm 0.00 in0.0 mm 0.01 in0.3 mm
01:30 AM 43.5°F6.4°C 43.0°F6.1°C 98% 1.6 mph SE2.6 kmh SE 3.1 mph5.0 kmh 29.98 in1015.2 mb 0.00 in0.0 mm 0.00 in0.0 mm 0.01 in0.3 mm
01:35 AM 43.5°F6.4°C 43.0°F6.1°C 98% 1.6 mph SE2.6 kmh SE 3.1 mph5.0 kmh 29.98 in1015.2 mb 0.00 in0.0 mm 0.00 in0.0 mm 0.01 in0.3 mm
01:40 AM 43.5°F6.4°C 43.0°F6.1°C 98% 0.7 mph SE1.1 kmh SE 3.1 mph5.0 kmh 29.98 in1015.2 mb 0.00 in0.0 mm 0.00 in0.0 mm 0.01 in0.3 mm
01:45 AM 43.7°F6.5°C 43.2°F6.2°C 98% 1.6 mph SE2.6 kmh SE 2.2 mph3.5 kmh 29.97 in1014.9 mb 0.00 in0.0 mm 0.00 in0.0 mm 0.01 in0.3 mm
01:50 AM 43.7°F6.5°C 43.2°F6.2°C 98% Calm Calm 3.1 mph5.0 kmh 29.98 in1015.2 mb 0.00 in0.0 mm 0.00 in0.0 mm 0.01 in0.3 mm
01:55 AM 43.7°F6.5°C 43.2°F6.2°C 98% 0.7 mph SE1.1 kmh SE 3.1 mph5.0 kmh 29.98 in1015.2 mb 0.00 in0.0 mm 0.00 in0.0 mm 0.01 in0.3 mm
02:00 AM 43.7°F6.5°C 43.2°F6.2°C 98% Calm Calm 1.6 mph2.6 kmh 29.98 in1015.2 mb 0.00 in0.0 mm 0.00 in0.0 mm 0.01 in0.3 mm
02:05 AM 43.7°F6.5°C 43.2°F6.2°C 98% Calm Calm 1.6 mph2.6 kmh 29.98 in1015.2 mb 0.00 in0.0 mm 0.00 in0.0 mm 0.01 in0.3 mm
02:10 AM 43.7°F6.5°C 43.2°F6.2°C 98% Calm Calm 1.6 mph2.6 kmh 29.98 in1015.2 mb 0.00 in0.0 mm 0.00 in0.0 mm 0.01 in0.3 mm
02:15 AM 43.7°F6.5°C 43.2°F6.2°C 98% 0.7 mph N1.1 kmh N 1.6 mph2.6 kmh 29.99 in1015.6 mb 0.00 in0.0 mm 0.00 in0.0 mm 0.01 in0.3 mm
02:20 AM 43.7°F6.5°C 43.2°F6.2°C 98% Calm Calm 1.6 mph2.6 kmh 29.98 in1015.2 mb 0.00 in0.0 mm 0.00 in0.0 mm 0.01 in0.3 mm
02:25 AM 43.7°F6.5°C 43.2°F6.2°C 98% Calm Calm 1.6 mph2.6 kmh 29.98 in1015.2 mb 0.00 in0.0 mm 0.00 in0.0 mm 0.01 in0.3 mm
02:30 AM 43.7°F6.5°C 43.2°F6.2°C 98% Calm Calm 0.7 mph1.1 kmh 29.98 in1015.2 mb 0.00 in0.0 mm 0.00 in0.0 mm 0.01 in0.3 mm
02:35 AM 43.7°F6.5°C 43.2°F6.2°C 98% Calm Calm 1.6 mph2.6 kmh 29.98 in1015.2 mb 0.00 in0.0 mm 0.00 in0.0 mm 0.01 in0.3 mm
02:40 AM 43.9°F6.6°C 43.4°F6.3°C 98% Calm Calm 1.6 mph2.6 kmh 29.97 in1014.9 mb 0.00 in0.0 mm 0.00 in0.0 mm 0.01 in0.3 mm
02:45 AM 43.9°F6.6°C 43.4°F6.3°C 98% Calm Calm 1.6 mph2.6 kmh 29.97 in1014.9 mb 0.00 in0.0 mm 0.00 in0.0 mm 0.01 in0.3 mm
02:50 AM 43.9°F6.6°C 43.4°F6.3°C 98% Calm Calm 1.6 mph2.6 kmh 29.97 in1014.9 mb 0.00 in0.0 mm 0.00 in0.0 mm 0.01 in0.3 mm
02:55 AM 43.9°F6.6°C 43.4°F6.3°C 98% Calm Calm -- 29.97 in1014.9 mb 0.00 in0.0 mm 0.00 in0.0 mm 0.01 in0.3 mm
03:00 AM 43.9°F6.6°C 43.4°F6.3°C 98% Calm Calm -- 29.97 in1014.9 mb 0.00 in0.0 mm 0.00 in0.0 mm 0.01 in0.3 mm
03:05 AM 43.9°F6.6°C 43.4°F6.3°C 98% Calm Calm -- 29.97 in1014.9 mb 0.00 in0.0 mm 0.00 in0.0 mm 0.01 in0.3 mm
03:10 AM 43.9°F6.6°C 43.4°F6.3°C 98% Calm Calm -- 29.97 in1014.9 mb 0.00 in0.0 mm 0.00 in0.0 mm 0.01 in0.3 mm
03:15 AM 43.9°F6.6°C 43.4°F6.3°C 98% Calm Calm -- 29.97 in1014.9 mb 0.00 in0.0 mm 0.00 in0.0 mm 0.01 in0.3 mm
03:20 AM 43.9°F6.6°C 43.4°F6.3°C 98% Calm Calm 0.7 mph1.1 kmh 29.96 in1014.6 mb 0.00 in0.0 mm 0.00 in0.0 mm 0.01 in0.3 mm
03:25 AM 44.1°F6.7°C 43.5°F6.4°C 98% Calm Calm 0.7 mph1.1 kmh 29.96 in1014.6 mb 0.00 in0.0 mm 0.00 in0.0 mm 0.01 in0.3 mm
03:30 AM 44.1°F6.7°C 43.5°F6.4°C 98% Calm Calm 1.6 mph2.6 kmh 29.96 in1014.6 mb 0.00 in0.0 mm 0.00 in0.0 mm 0.01 in0.3 mm
03:35 AM 44.1°F6.7°C 43.5°F6.4°C 98% Calm Calm 1.6 mph2.6 kmh 29.96 in1014.6 mb 0.00 in0.0 mm 0.00 in0.0 mm 0.01 in0.3 mm
03:40 AM 44.1°F6.7°C 43.5°F6.4°C 98% Calm Calm -- 29.96 in1014.6 mb 0.00 in0.0 mm 0.00 in0.0 mm 0.01 in0.3 mm
03:45 AM 44.1°F6.7°C 43.5°F6.4°C 98% 2.2 mph WNW3.5 kmh WNW 3.1 mph5.0 kmh 29.96 in1014.6 mb 0.00 in0.0 mm 0.00 in0.0 mm 0.01 in0.3 mm
03:50 AM 44.1°F6.7°C 43.5°F6.4°C 98% Calm Calm 3.1 mph5.0 kmh 29.95 in1014.2 mb 0.00 in0.0 mm 0.00 in0.0 mm 0.01 in0.3 mm
03:55 AM 44.1°F6.7°C 43.5°F6.4°C 98% Calm Calm 3.1 mph5.0 kmh 29.95 in1014.2 mb 0.00 in0.0 mm 0.00 in0.0 mm 0.01 in0.3 mm
04:00 AM 44.1°F6.7°C 43.5°F6.4°C 98% Calm Calm 0.7 mph1.1 kmh 29.95 in1014.2 mb 0.00 in0.0 mm 0.00 in0.0 mm 0.01 in0.3 mm
04:05 AM 44.2°F6.8°C 43.7°F6.5°C 98% Calm Calm -- 29.95 in1014.2 mb 0.00 in0.0 mm 0.00 in0.0 mm 0.01 in0.3 mm
04:10 AM 44.2°F6.8°C 43.7°F6.5°C 98% 2.2 mph NE3.5 kmh NE 3.1 mph5.0 kmh 29.95 in1014.2 mb 0.00 in0.0 mm 0.00 in0.0 mm 0.01 in0.3 mm
04:15 AM 44.2°F6.8°C 43.7°F6.5°C 98% 2.2 mph NNE3.5 kmh NNE 4.5 mph7.2 kmh 29.95 in1014.2 mb 0.00 in0.0 mm 0.00 in0.0 mm 0.01 in0.3 mm
04:20 AM 44.2°F6.8°C 43.7°F6.5°C 98% 0.7 mph NNE1.1 kmh NNE 6.9 mph11.1 kmh 29.95 in1014.2 mb 0.00 in0.0 mm 0.00 in0.0 mm 0.01 in0.3 mm
04:25 AM 44.2°F6.8°C 43.7°F6.5°C 98% 3.8 mph N6.1 kmh N 6.9 mph11.1 kmh 29.94 in1013.9 mb 0.00 in0.0 mm 0.00 in0.0 mm 0.01 in0.3 mm
04:30 AM 44.2°F6.8°C 43.7°F6.5°C 98% Calm Calm 5.4 mph8.7 kmh 29.94 in1013.9 mb 0.00 in0.0 mm 0.00 in0.0 mm 0.01 in0.3 mm
04:35 AM 44.2°F6.8°C 43.7°F6.5°C 98% Calm Calm 5.4 mph8.7 kmh 29.94 in1013.9 mb 0.00 in0.0 mm 0.00 in0.0 mm 0.01 in0.3 mm
04:40 AM 44.4°F6.9°C 43.9°F6.6°C 98% 3.1 mph N5.0 kmh N 5.4 mph8.7 kmh 29.94 in1013.9 mb 0.00 in0.0 mm 0.00 in0.0 mm 0.01 in0.3 mm
04:45 AM 44.4°F6.9°C 43.9°F6.6°C 98% 4.5 mph NE7.2 kmh NE 6.0 mph9.7 kmh 29.94 in1013.9 mb 0.00 in0.0 mm 0.00 in0.0 mm 0.01 in0.3 mm
04:50 AM 44.4°F6.9°C 43.9°F6.6°C 98% 3.8 mph NE6.1 kmh NE 6.0 mph9.7 kmh 29.94 in1013.9 mb 0.00 in0.0 mm 0.00 in0.0 mm 0.01 in0.3 mm
04:55 AM 44.4°F6.9°C 43.9°F6.6°C 98% 0.7 mph NE1.1 kmh NE 6.0 mph9.7 kmh 29.94 in1013.9 mb 0.00 in0.0 mm 0.00 in0.0 mm 0.01 in0.3 mm
05:00 AM 44.6°F7.0°C 43.8°F6.6°C 97% 1.6 mph NE2.6 kmh NE 5.4 mph8.7 kmh 29.94 in1013.9 mb 0.00 in0.0 mm 0.00 in0.0 mm 0.01 in0.3 mm
05:05 AM 44.6°F7.0°C 43.8°F6.6°C 97% 1.6 mph ESE2.6 kmh ESE 3.8 mph6.1 kmh 29.94 in1013.9 mb 0.00 in0.0 mm 0.00 in0.0 mm 0.01 in0.3 mm
05:10 AM 44.8°F7.1°C 44.0°F6.7°C 97% 1.6 mph S2.6 kmh S 4.5 mph7.2 kmh 29.93 in1013.5 mb 0.00 in0.0 mm 0.00 in0.0 mm 0.01 in0.3 mm
05:15 AM 45.0°F7.2°C 44.2°F6.8°C 97% 1.6 mph SW2.6 kmh SW 4.5 mph7.2 kmh 29.93 in1013.5 mb 0.00 in0.0 mm 0.00 in0.0 mm 0.01 in0.3 mm
05:20 AM 45.3°F7.4°C 44.5°F6.9°C 97% Calm Calm 4.5 mph7.2 kmh 29.93 in1013.5 mb 0.00 in0.0 mm 0.00 in0.0 mm 0.01 in0.3 mm
05:25 AM 45.3°F7.4°C 44.5°F6.9°C 97% 2.2 mph ESE3.5 kmh ESE 4.5 mph7.2 kmh 29.93 in1013.5 mb 0.00 in0.0 mm 0.00 in0.0 mm 0.01 in0.3 mm
05:30 AM 45.3°F7.4°C 44.5°F6.9°C 97% 0.7 mph NE1.1 kmh NE 4.5 mph7.2 kmh 29.93 in1013.5 mb 0.00 in0.0 mm 0.00 in0.0 mm 0.01 in0.3 mm
05:35 AM 45.1°F7.3°C 44.3°F6.8°C 97% 2.2 mph NNE3.5 kmh NNE 4.5 mph7.2 kmh 29.94 in1013.9 mb 0.00 in0.0 mm 0.00 in0.0 mm 0.01 in0.3 mm
05:40 AM 45.1°F7.3°C 44.3°F6.8°C 97% 0.7 mph NE1.1 kmh NE 6.0 mph9.7 kmh 29.93 in1013.5 mb 0.00 in0.0 mm 0.00 in0.0 mm 0.01 in0.3 mm
05:45 AM 45.1°F7.3°C 44.3°F6.8°C 97% Calm Calm 6.0 mph9.7 kmh 29.93 in1013.5 mb 0.00 in0.0 mm 0.00 in0.0 mm 0.01 in0.3 mm
05:50 AM 45.1°F7.3°C 44.3°F6.8°C 97% 1.6 mph NE2.6 kmh NE 3.8 mph6.1 kmh 29.92 in1013.2 mb 0.00 in0.0 mm 0.00 in0.0 mm 0.01 in0.3 mm
05:55 AM 45.1°F7.3°C 44.3°F6.8°C 97% Calm Calm 3.8 mph6.1 kmh 29.92 in1013.2 mb 0.00 in0.0 mm 0.00 in0.0 mm 0.01 in0.3 mm
06:00 AM 45.3°F7.4°C 44.5°F6.9°C 97% Calm Calm 3.8 mph6.1 kmh 29.92 in1013.2 mb 0.00 in0.0 mm 0.00 in0.0 mm 0.01 in0.3 mm
06:05 AM 45.3°F7.4°C 44.5°F6.9°C 97% Calm Calm 3.1 mph5.0 kmh 29.91 in1012.9 mb 0.00 in0.0 mm 0.00 in0.0 mm 0.01 in0.3 mm
06:10 AM 45.3°F7.4°C 44.5°F6.9°C 97% Calm Calm 1.6 mph2.6 kmh 29.91 in1012.9 mb 0.00 in0.0 mm 0.00 in0.0 mm 0.01 in0.3 mm
06:15 AM 45.5°F7.5°C 44.7°F7.1°C 97% 0.7 mph SSE1.1 kmh SSE 2.2 mph3.5 kmh 29.91 in1012.9 mb 0.00 in0.0 mm 0.00 in0.0 mm 0.01 in0.3 mm
06:20 AM 45.7°F7.6°C 44.9°F7.2°C 97% 3.8 mph NNE6.1 kmh NNE 5.4 mph8.7 kmh 29.92 in1013.2 mb 0.00 in0.0 mm 0.00 in0.0 mm 0.01 in0.3 mm
06:25 AM 45.7°F7.6°C 44.9°F7.2°C 97% 3.8 mph NNE6.1 kmh NNE 6.0 mph9.7 kmh 29.91 in1012.9 mb 0.00 in0.0 mm 0.00 in0.0 mm 0.01 in0.3 mm
06:30 AM 45.7°F7.6°C 44.9°F7.2°C 97% 3.1 mph NNE5.0 kmh NNE 6.0 mph9.7 kmh 29.91 in1012.9 mb 0.00 in0.0 mm 0.00 in0.0 mm 0.01 in0.3 mm
06:35 AM 45.5°F7.5°C 44.7°F7.1°C 97% 0.7 mph NE1.1 kmh NE 6.0 mph9.7 kmh 29.91 in1012.9 mb 0.00 in0.0 mm 0.00 in0.0 mm 0.01 in0.3 mm
06:40 AM 45.5°F7.5°C 44.7°F7.1°C 97% Calm Calm 4.5 mph7.2 kmh 29.91 in1012.9 mb 0.00 in0.0 mm 0.00 in0.0 mm 0.01 in0.3 mm
06:45 AM 45.7°F7.6°C 44.9°F7.2°C 97% 3.1 mph NE5.0 kmh NE 4.5 mph7.2 kmh 29.91 in1012.9 mb 0.00 in0.0 mm 0.00 in0.0 mm 0.01 in0.3 mm
06:50 AM 45.7°F7.6°C 44.9°F7.2°C 97% 1.6 mph ENE2.6 kmh ENE 4.5 mph7.2 kmh 29.91 in1012.9 mb 0.00 in0.0 mm 0.00 in0.0 mm 0.01 in0.3 mm
06:55 AM 45.7°F7.6°C 44.9°F7.2°C 97% Calm Calm 4.5 mph7.2 kmh 29.91 in1012.9 mb 0.00 in0.0 mm 0.00 in0.0 mm 0.01 in0.3 mm
07:00 AM 45.7°F7.6°C 44.9°F7.2°C 97% 1.6 mph ENE2.6 kmh ENE 3.8 mph6.1 kmh 29.90 in1012.5 mb 0.00 in0.0 mm 0.00 in0.0 mm 0.01 in0.3 mm
07:05 AM 45.7°F7.6°C 44.9°F7.2°C 97% Calm Calm 3.8 mph6.1 kmh 29.90 in1012.5 mb 0.00 in0.0 mm 0.00 in0.0 mm 0.01 in0.3 mm
07:10 AM 45.9°F7.7°C 45.1°F7.3°C 97% 0.7 mph E1.1 kmh E 1.6 mph2.6 kmh 29.90 in1012.5 mb 0.00 in0.0 mm 0.00 in0.0 mm 0.01 in0.3 mm
07:15 AM 45.9°F7.7°C 45.1°F7.3°C 97% 3.1 mph NE5.0 kmh NE 4.5 mph7.2 kmh 29.91 in1012.9 mb 0.00 in0.0 mm 0.00 in0.0 mm 0.01 in0.3 mm
07:20 AM 45.9°F7.7°C 45.1°F7.3°C 97% 0.7 mph NNE1.1 kmh NNE 4.5 mph7.2 kmh 29.91 in1012.9 mb 0.00 in0.0 mm 0.00 in0.0 mm 0.01 in0.3 mm
07:25 AM 45.9°F7.7°C 45.1°F7.3°C 97% Calm Calm 4.5 mph7.2 kmh 29.91 in1012.9 mb 0.00 in0.0 mm 0.00 in0.0 mm 0.01 in0.3 mm
07:30 AM 45.9°F7.7°C 45.1°F7.3°C 97% 0.7 mph NE1.1 kmh NE 3.8 mph6.1 kmh 29.91 in1012.9 mb 0.00 in0.0 mm 0.00 in0.0 mm 0.01 in0.3 mm
07:35 AM 45.9°F7.7°C 45.1°F7.3°C 97% 2.2 mph NE3.5 kmh NE 3.8 mph6.1 kmh 29.91 in1012.9 mb 0.00 in0.0 mm 0.00 in0.0 mm 0.01 in0.3 mm
07:40 AM 45.9°F7.7°C 45.1°F7.3°C 97% 1.6 mph NE2.6 kmh NE 5.4 mph8.7 kmh 29.91 in1012.9 mb 0.00 in0.0 mm 0.00 in0.0 mm 0.01 in0.3 mm
07:45 AM 46.0°F7.8°C 45.2°F7.3°C 97% 2.2 mph NE3.5 kmh NE 5.4 mph8.7 kmh 29.91 in1012.9 mb 0.00 in0.0 mm 0.00 in0.0 mm 0.01 in0.3 mm
07:50 AM 46.0°F7.8°C 45.2°F7.3°C 97% Calm Calm 4.5 mph7.2 kmh 29.91 in1012.9 mb 0.00 in0.0 mm 0.00 in0.0 mm 0.01 in0.3 mm
07:55 AM 46.0°F7.8°C 45.2°F7.3°C 97% Calm Calm 3.8 mph6.1 kmh 29.92 in1013.2 mb 0.00 in0.0 mm 0.00 in0.0 mm 0.01 in0.3 mm
08:00 AM 46.0°F7.8°C 45.2°F7.3°C 97% Calm Calm 1.6 mph2.6 kmh 29.92 in1013.2 mb 0.00 in0.0 mm 0.00 in0.0 mm 0.01 in0.3 mm
08:05 AM 46.0°F7.8°C 45.2°F7.3°C 97% 2.2 mph NE3.5 kmh NE 3.1 mph5.0 kmh 29.92 in1013.2 mb 0.00 in0.0 mm 0.00 in0.0 mm 0.01 in0.3 mm
08:10 AM 46.2°F7.9°C 45.4°F7.4°C 97% Calm Calm 3.1 mph5.0 kmh 29.92 in1013.2 mb 0.00 in0.0 mm 0.00 in0.0 mm 0.01 in0.3 mm
08:15 AM 46.2°F7.9°C 45.4°F7.4°C 97% 1.6 mph E2.6 kmh E 3.1 mph5.0 kmh 29.92 in1013.2 mb 0.00 in0.0 mm 0.00 in0.0 mm 0.01 in0.3 mm
08:20 AM 46.0°F7.8°C 45.2°F7.3°C 97% Calm Calm 3.1 mph5.0 kmh 29.92 in1013.2 mb 0.00 in0.0 mm 0.00 in0.0 mm 0.01 in0.3 mm
08:25 AM 46.0°F7.8°C 45.2°F7.3°C 97% 0.7 mph ENE1.1 kmh ENE 3.1 mph5.0 kmh 29.92 in1013.2 mb 0.00 in0.0 mm 0.00 in0.0 mm 0.01 in0.3 mm
08:30 AM 46.0°F7.8°C 45.2°F7.3°C 97% 0.7 mph ENE1.1 kmh ENE 2.2 mph3.5 kmh 29.92 in1013.2 mb 0.00 in0.0 mm 0.00 in0.0 mm 0.01 in0.3 mm
08:35 AM 46.2°F7.9°C 45.4°F7.4°C 97% 0.7 mph E1.1 kmh E 3.1 mph5.0 kmh 29.92 in1013.2 mb 0.00 in0.0 mm 0.00 in0.0 mm 0.01 in0.3 mm
08:40 AM 46.2°F7.9°C 45.4°F7.4°C 97% 1.6 mph E2.6 kmh E 3.1 mph5.0 kmh 29.92 in1013.2 mb 0.00 in0.0 mm 0.00 in0.0 mm 0.01 in0.3 mm
08:45 AM 46.2°F7.9°C 45.4°F7.4°C 97% 0.7 mph E1.1 kmh E 3.8 mph6.1 kmh 29.93 in1013.5 mb 0.00 in0.0 mm 0.00 in0.0 mm 0.01 in0.3 mm
08:50 AM 46.4°F8.0°C 46.1°F7.8°C 99% Calm Calm 3.8 mph6.1 kmh 29.93 in1013.5 mb 0.00 in0.0 mm 0.00 in0.0 mm 0.01 in0.3 mm
08:55 AM 46.4°F8.0°C 46.1°F7.8°C 99% Calm Calm 3.1 mph5.0 kmh 29.94 in1013.9 mb 0.00 in0.0 mm 0.00 in0.0 mm 0.01 in0.3 mm
09:00 AM 46.4°F8.0°C 46.1°F7.8°C 99% Calm Calm 0.7 mph1.1 kmh 29.93 in1013.5 mb 0.00 in0.0 mm 0.00 in0.0 mm 0.01 in0.3 mm
09:05 AM 46.6°F8.1°C 46.3°F7.9°C 99% 2.2 mph NNE3.5 kmh NNE 3.8 mph6.1 kmh 29.94 in1013.9 mb 0.00 in0.0 mm 0.00 in0.0 mm 0.01 in0.3 mm
09:10 AM 46.6°F8.1°C 46.3°F7.9°C 99% 0.7 mph NNE1.1 kmh NNE 4.5 mph7.2 kmh 29.95 in1014.2 mb 0.00 in0.0 mm 0.00 in0.0 mm 0.01 in0.3 mm
09:15 AM 46.9°F8.3°C 46.7°F8.2°C 99% 0.7 mph NNE1.1 kmh NNE 4.5 mph7.2 kmh 29.95 in1014.2 mb 0.00 in0.0 mm 0.00 in0.0 mm 0.01 in0.3 mm
09:20 AM 47.1°F8.4°C 46.9°F8.3°C 99% 1.6 mph ENE2.6 kmh ENE 3.8 mph6.1 kmh 29.95 in1014.2 mb 0.00 in0.0 mm 0.00 in0.0 mm 0.01 in0.3 mm
09:25 AM 47.3°F8.5°C 47.0°F8.3°C 99% 1.6 mph ESE2.6 kmh ESE 3.8 mph6.1 kmh 29.94 in1013.9 mb 0.00 in0.0 mm 0.00 in0.0 mm 0.01 in0.3 mm
09:30 AM 47.5°F8.6°C 47.2°F8.4°C 99% Calm Calm 3.1 mph5.0 kmh 29.95 in1014.2 mb 0.00 in0.0 mm 0.00 in0.0 mm 0.01 in0.3 mm
09:35 AM 47.7°F8.7°C 47.4°F8.6°C 99% Calm Calm 2.2 mph3.5 kmh 29.95 in1014.2 mb 0.00 in0.0 mm 0.00 in0.0 mm 0.01 in0.3 mm
09:40 AM 47.8°F8.8°C 47.6°F8.7°C 99% Calm Calm 1.6 mph2.6 kmh 29.95 in1014.2 mb 0.00 in0.0 mm 0.00 in0.0 mm 0.01 in0.3 mm
09:45 AM 48.0°F8.9°C 47.8°F8.8°C 99% Calm Calm 2.2 mph3.5 kmh 29.95 in1014.2 mb 0.00 in0.0 mm 0.00 in0.0 mm 0.01 in0.3 mm
09:50 AM 48.2°F9.0°C 47.9°F8.8°C 99% 0.7 mph NE1.1 kmh NE 2.2 mph3.5 kmh 29.95 in1014.2 mb 0.00 in0.0 mm 0.00 in0.0 mm 0.01 in0.3 mm
09:55 AM 48.4°F9.1°C 48.1°F8.9°C 99% Calm Calm 2.2 mph3.5 kmh 29.95 in1014.2 mb 0.00 in0.0 mm 0.00 in0.0 mm 0.01 in0.3 mm
10:00 AM 48.7°F9.3°C 48.5°F9.2°C 99% Calm Calm 1.6 mph2.6 kmh 29.95 in1014.2 mb 0.00 in0.0 mm 0.00 in0.0 mm 0.01 in0.3 mm
10:05 AM 48.7°F9.3°C 48.5°F9.2°C 99% Calm Calm 0.7 mph1.1 kmh 29.94 in1013.9 mb 0.00 in0.0 mm 0.00 in0.0 mm 0.01 in0.3 mm
10:10 AM 49.5°F9.7°C 49.2°F9.6°C 99% Calm Calm 0.7 mph1.1 kmh 29.94 in1013.9 mb 0.00 in0.0 mm 0.00 in0.0 mm 0.01 in0.3 mm
10:15 AM 49.8°F9.9°C 49.6°F9.8°C 99% Calm Calm 1.6 mph2.6 kmh 29.94 in1013.9 mb 0.00 in0.0 mm 0.00 in0.0 mm 0.01 in0.3 mm
10:20 AM 50.2°F10.1°C 49.9°F9.9°C 99% 2.2 mph WSW3.5 kmh WSW 4.5 mph7.2 kmh 29.93 in1013.5 mb 0.00 in0.0 mm 0.00 in0.0 mm 0.01 in0.3 mm
10:25 AM 50.9°F10.5°C 50.6°F10.3°C 99% 2.2 mph SW3.5 kmh SW 6.0 mph9.7 kmh 29.93 in1013.5 mb 0.00 in0.0 mm 0.00 in0.0 mm 0.01 in0.3 mm
10:30 AM 51.6°F10.9°C 51.4°F10.8°C 99% 2.2 mph WSW3.5 kmh WSW 6.0 mph9.7 kmh 29.93 in1013.5 mb 0.00 in0.0 mm 0.00 in0.0 mm 0.01 in0.3 mm
10:35 AM 52.3°F11.3°C 51.8°F11.0°C 98% 3.1 mph W5.0 kmh W 6.0 mph9.7 kmh 29.94 in1013.9 mb 0.00 in0.0 mm 0.00 in0.0 mm 0.01 in0.3 mm
10:40 AM 53.1°F11.7°C 52.5°F11.4°C 98% 3.1 mph WNW5.0 kmh WNW 5.4 mph8.7 kmh 29.95 in1014.2 mb 0.00 in0.0 mm 0.00 in0.0 mm 0.01 in0.3 mm
10:45 AM 53.6°F12.0°C 52.8°F11.6°C 97% 3.1 mph WNW5.0 kmh WNW 7.6 mph12.2 kmh 29.95 in1014.2 mb 0.01 in0.3 mm 0.12 in3.0 mm 0.01 in0.3 mm
10:50 AM 54.0°F12.2°C 53.1°F11.7°C 97% 3.1 mph NW5.0 kmh NW 7.6 mph12.2 kmh 29.95 in1014.2 mb 0.01 in0.3 mm 0.00 in0.0 mm 0.01 in0.3 mm
10:55 AM 54.3°F12.4°C 53.2°F11.8°C 96% 4.5 mph NW7.2 kmh NW 7.6 mph12.2 kmh 29.95 in1014.2 mb 0.01 in0.3 mm 0.00 in0.0 mm 0.01 in0.3 mm
11:00 AM 54.7°F12.6°C 53.3°F11.8°C 95% 3.8 mph WNW6.1 kmh WNW 6.9 mph11.1 kmh 29.95 in1014.2 mb 0.01 in0.3 mm 0.00 in0.0 mm 0.01 in0.3 mm
11:05 AM 54.9°F12.7°C 52.9°F11.6°C 93% 3.8 mph WNW6.1 kmh WNW 8.3 mph13.4 kmh 29.95 in1014.2 mb 0.01 in0.3 mm 0.00 in0.0 mm 0.01 in0.3 mm
11:10 AM 55.2°F12.9°C 52.6°F11.4°C 91% 6.0 mph WNW9.7 kmh WNW 8.3 mph13.4 kmh 29.94 in1013.9 mb 0.01 in0.3 mm 0.00 in0.0 mm 0.01 in0.3 mm
11:15 AM 55.6°F13.1°C 52.1°F11.2°C 88% 4.5 mph W7.2 kmh W 9.2 mph14.8 kmh 29.95 in1014.2 mb 0.01 in0.3 mm 0.00 in0.0 mm 0.01 in0.3 mm
11:20 AM 55.9°F13.3°C 52.1°F11.2°C 87% 5.4 mph W8.7 kmh W 9.8 mph15.8 kmh 29.96 in1014.6 mb 0.01 in0.3 mm 0.00 in0.0 mm 0.01 in0.3 mm
11:25 AM 56.3°F13.5°C 51.9°F11.1°C 85% 6.9 mph W11.1 kmh W 9.8 mph15.8 kmh 29.95 in1014.2 mb 0.01 in0.3 mm 0.00 in0.0 mm 0.01 in0.3 mm
11:30 AM 56.5°F13.6°C 51.4°F10.8°C 83% 4.5 mph WNW7.2 kmh WNW 9.2 mph14.8 kmh 29.96 in1014.6 mb 0.01 in0.3 mm 0.00 in0.0 mm 0.01 in0.3 mm
11:35 AM 56.7°F13.7°C 50.9°F10.5°C 81% 6.0 mph NW9.7 kmh NW 10.7 mph17.2 kmh 29.96 in1014.6 mb 0.01 in0.3 mm 0.00 in0.0 mm 0.01 in0.3 mm
11:40 AM 57.0°F13.9°C 51.3°F10.7°C 81% 6.9 mph WNW11.1 kmh WNW 10.7 mph17.2 kmh 29.97 in1014.9 mb 0.01 in0.3 mm 0.00 in0.0 mm 0.01 in0.3 mm
11:45 AM 57.4°F14.1°C 50.6°F10.3°C 78% 6.9 mph WNW11.1 kmh WNW 13.6 mph21.9 kmh 29.96 in1014.6 mb 0.00 in0.0 mm 0.00 in0.0 mm 0.01 in0.3 mm
11:50 AM 57.7°F14.3°C 50.2°F10.1°C 76% 2.2 mph W3.5 kmh W 13.6 mph21.9 kmh 29.96 in1014.6 mb 0.00 in0.0 mm 0.00 in0.0 mm 0.01 in0.3 mm
11:55 AM 58.1°F14.5°C 50.2°F10.1°C 75% 6.0 mph WSW9.7 kmh WSW 10.7 mph17.2 kmh 29.96 in1014.6 mb 0.00 in0.0 mm 0.00 in0.0 mm 0.01 in0.3 mm
12:00 PM 58.5°F14.7°C 50.2°F10.1°C 74% 7.6 mph W12.2 kmh W 13.6 mph21.9 kmh 29.96 in1014.6 mb 0.00 in0.0 mm 0.00 in0.0 mm 0.01 in0.3 mm
12:05 PM 58.6°F14.8°C 50.0°F10.0°C 73% 6.0 mph WNW9.7 kmh WNW 13.6 mph21.9 kmh 29.96 in1014.6 mb 0.00 in0.0 mm 0.00 in0.0 mm 0.01 in0.3 mm
12:10 PM 59.0°F15.0°C 50.0°F10.0°C 72% 6.9 mph WNW11.1 kmh WNW 13.0 mph20.9 kmh 29.96 in1014.6 mb 0.00 in0.0 mm 0.00 in0.0 mm 0.01 in0.3 mm
12:15 PM 59.0°F15.0°C 49.2°F9.6°C 70% 9.2 mph WNW14.8 kmh WNW 13.6 mph21.9 kmh 29.96 in1014.6 mb 0.00 in0.0 mm 0.00 in0.0 mm 0.01 in0.3 mm
12:20 PM 59.2°F15.1°C 49.4°F9.7°C 70% 8.3 mph WNW13.4 kmh WNW 13.6 mph21.9 kmh 29.97 in1014.9 mb 0.00 in0.0 mm 0.00 in0.0 mm 0.01 in0.3 mm
12:25 PM 59.4°F15.2°C 49.2°F9.6°C 69% 5.4 mph WNW8.7 kmh WNW 13.6 mph21.9 kmh 29.97 in1014.9 mb 0.00 in0.0 mm 0.00 in0.0 mm 0.01 in0.3 mm
12:30 PM 59.2°F15.1°C 48.6°F9.2°C 68% 6.0 mph W9.7 kmh W 11.4 mph18.3 kmh 29.96 in1014.6 mb 0.00 in0.0 mm 0.00 in0.0 mm 0.01 in0.3 mm
12:35 PM 58.8°F14.9°C 48.7°F9.3°C 69% 5.4 mph W8.7 kmh W 11.4 mph18.3 kmh 29.96 in1014.6 mb 0.00 in0.0 mm 0.00 in0.0 mm 0.01 in0.3 mm
12:40 PM 59.4°F15.2°C 49.2°F9.6°C 69% 5.4 mph NW8.7 kmh NW 11.4 mph18.3 kmh 29.97 in1014.9 mb 0.00 in0.0 mm 0.00 in0.0 mm 0.01 in0.3 mm
12:45 PM 59.9°F15.5°C 48.9°F9.4°C 67% 3.8 mph WNW6.1 kmh WNW 11.4 mph18.3 kmh 29.97 in1014.9 mb 0.00 in0.0 mm 0.00 in0.0 mm 0.01 in0.3 mm
12:50 PM 60.3°F15.7°C 47.6°F8.7°C 63% 9.2 mph WNW14.8 kmh WNW 14.5 mph23.3 kmh 29.96 in1014.6 mb 0.00 in0.0 mm 0.00 in0.0 mm 0.01 in0.3 mm
12:55 PM 60.8°F16.0°C 45.0°F7.2°C 56% 11.4 mph NW18.3 kmh NW 14.5 mph23.3 kmh 29.97 in1014.9 mb 0.00 in0.0 mm 0.00 in0.0 mm 0.01 in0.3 mm
01:00 PM 61.0°F16.1°C 44.2°F6.8°C 54% 9.2 mph NW14.8 kmh NW 13.6 mph21.9 kmh 29.96 in1014.6 mb 0.00 in0.0 mm 0.00 in0.0 mm 0.01 in0.3 mm
01:05 PM 61.0°F16.1°C 44.7°F7.1°C 55% 6.0 mph NW9.7 kmh NW 13.6 mph21.9 kmh 29.95 in1014.2 mb 0.00 in0.0 mm 0.00 in0.0 mm 0.01 in0.3 mm
01:10 PM 61.3°F16.3°C 44.6°F7.0°C 54% 9.2 mph NW14.8 kmh NW 13.0 mph20.9 kmh 29.96 in1014.6 mb 0.00 in0.0 mm 0.00 in0.0 mm 0.01 in0.3 mm
01:15 PM 61.5°F16.4°C 44.2°F6.8°C 53% 8.3 mph NW13.4 kmh NW 13.0 mph20.9 kmh 29.96 in1014.6 mb 0.00 in0.0 mm 0.00 in0.0 mm 0.01 in0.3 mm
01:20 PM 61.2°F16.2°C 43.4°F6.3°C 52% 5.4 mph NW8.7 kmh NW 13.0 mph20.9 kmh 29.96 in1014.6 mb 0.00 in0.0 mm 0.00 in0.0 mm 0.01 in0.3 mm
01:25 PM 61.3°F16.3°C 44.1°F6.7°C 53% 5.4 mph NW8.7 kmh NW 10.7 mph17.2 kmh 29.96 in1014.6 mb 0.00 in0.0 mm 0.00 in0.0 mm 0.01 in0.3 mm
01:30 PM 61.3°F16.3°C 44.6°F7.0°C 54% 6.9 mph N11.1 kmh N 11.4 mph18.3 kmh 29.96 in1014.6 mb 0.00 in0.0 mm 0.00 in0.0 mm 0.01 in0.3 mm
01:35 PM 61.0°F16.1°C 44.2°F6.8°C 54% 7.6 mph N12.2 kmh N 13.0 mph20.9 kmh 29.96 in1014.6 mb 0.00 in0.0 mm 0.00 in0.0 mm 0.01 in0.3 mm
01:40 PM 60.6°F15.9°C 43.9°F6.6°C 54% 9.8 mph N15.8 kmh N 13.0 mph20.9 kmh 29.95 in1014.2 mb 0.00 in0.0 mm 0.00 in0.0 mm 0.01 in0.3 mm
01:45 PM 60.3°F15.7°C 43.1°F6.2°C 53% 9.2 mph N14.8 kmh N 13.0 mph20.9 kmh 29.95 in1014.2 mb 0.00 in0.0 mm 0.00 in0.0 mm 0.01 in0.3 mm
01:50 PM 60.3°F15.7°C 43.6°F6.4°C 54% 10.7 mph N17.2 kmh N 13.0 mph20.9 kmh 29.95 in1014.2 mb 0.00 in0.0 mm 0.00 in0.0 mm 0.01 in0.3 mm
01:55 PM 60.3°F15.7°C 43.1°F6.2°C 53% 9.2 mph N14.8 kmh N 13.6 mph21.9 kmh 29.96 in1014.6 mb 0.00 in0.0 mm 0.00 in0.0 mm 0.01 in0.3 mm
02:00 PM 59.9°F15.5°C 42.7°F5.9°C 53% 6.9 mph N11.1 kmh N 14.5 mph23.3 kmh 29.95 in1014.2 mb 0.00 in0.0 mm 0.00 in0.0 mm 0.01 in0.3 mm
02:05 PM 59.5°F15.3°C 42.4°F5.8°C 53% 9.8 mph NW15.8 kmh NW 16.8 mph27.0 kmh 29.96 in1014.6 mb 0.00 in0.0 mm 0.00 in0.0 mm 0.01 in0.3 mm
02:10 PM 59.5°F15.3°C 42.4°F5.8°C 53% 8.3 mph NNW13.4 kmh NNW 16.8 mph27.0 kmh 29.95 in1014.2 mb 0.00 in0.0 mm 0.00 in0.0 mm 0.01 in0.3 mm
02:15 PM 59.2°F15.1°C 41.1°F5.1°C 51% 8.3 mph NNE13.4 kmh NNE 15.2 mph24.5 kmh 29.95 in1014.2 mb 0.00 in0.0 mm 0.00 in0.0 mm 0.01 in0.3 mm
02:20 PM 59.0°F15.0°C 41.9°F5.5°C 53% 8.3 mph NNE13.4 kmh NNE 15.2 mph24.5 kmh 29.95 in1014.2 mb 0.00 in0.0 mm 0.00 in0.0 mm 0.01 in0.3 mm
02:25 PM 59.0°F15.0°C 41.9°F5.5°C 53% 9.8 mph N15.8 kmh N 13.6 mph21.9 kmh 29.96 in1014.6 mb 0.00 in0.0 mm 0.00 in0.0 mm 0.01 in0.3 mm
02:30 PM 59.2°F15.1°C 41.6°F5.3°C 52% 6.9 mph N11.1 kmh N 15.2 mph24.5 kmh 29.96 in1014.6 mb 0.00 in0.0 mm 0.00 in0.0 mm 0.01 in0.3 mm
02:35 PM 59.4°F15.2°C 41.7°F5.4°C 52% 7.6 mph N12.2 kmh N 15.2 mph24.5 kmh 29.96 in1014.6 mb 0.00 in0.0 mm 0.00 in0.0 mm 0.01 in0.3 mm
02:40 PM 59.4°F15.2°C 41.2°F5.1°C 51% 6.0 mph N9.7 kmh N 13.0 mph20.9 kmh 29.96 in1014.6 mb 0.00 in0.0 mm 0.00 in0.0 mm 0.01 in0.3 mm
02:45 PM 59.2°F15.1°C 41.1°F5.1°C 51% 6.9 mph NNW11.1 kmh NNW 11.4 mph18.3 kmh 29.96 in1014.6 mb 0.00 in0.0 mm 0.00 in0.0 mm 0.01 in0.3 mm
02:50 PM 59.2°F15.1°C 41.1°F5.1°C 51% 1.6 mph NNW2.6 kmh NNW 13.0 mph20.9 kmh 29.97 in1014.9 mb 0.00 in0.0 mm 0.00 in0.0 mm 0.01 in0.3 mm
02:55 PM 59.4°F15.2°C 41.2°F5.1°C 51% 5.4 mph N8.7 kmh N 13.0 mph20.9 kmh 29.96 in1014.6 mb 0.00 in0.0 mm 0.00 in0.0 mm 0.01 in0.3 mm
03:00 PM 59.5°F15.3°C 40.9°F4.9°C 50% 4.5 mph N7.2 kmh N 8.3 mph13.4 kmh 29.97 in1014.9 mb 0.00 in0.0 mm 0.00 in0.0 mm 0.01 in0.3 mm
03:05 PM 59.7°F15.4°C 40.5°F4.7°C 49% 1.6 mph N2.6 kmh N 8.3 mph13.4 kmh 29.96 in1014.6 mb 0.00 in0.0 mm 0.00 in0.0 mm 0.01 in0.3 mm
03:10 PM 59.5°F15.3°C 39.8°F4.3°C 48% 7.6 mph N12.2 kmh N 10.7 mph17.2 kmh 29.97 in1014.9 mb 0.00 in0.0 mm 0.00 in0.0 mm 0.01 in0.3 mm
03:15 PM 59.7°F15.4°C 41.6°F5.3°C 51% 7.6 mph NNW12.2 kmh NNW 15.2 mph24.5 kmh 29.97 in1014.9 mb 0.00 in0.0 mm 0.00 in0.0 mm 0.01 in0.3 mm
03:20 PM 59.7°F15.4°C 41.6°F5.3°C 51% 10.7 mph NW17.2 kmh NW 15.2 mph24.5 kmh 29.97 in1014.9 mb 0.00 in0.0 mm 0.00 in0.0 mm 0.01 in0.3 mm
03:25 PM 59.4°F15.2°C 40.7°F4.8°C 50% 6.9 mph NNW11.1 kmh NNW 13.6 mph21.9 kmh 29.97 in1014.9 mb 0.00 in0.0 mm 0.00 in0.0 mm 0.01 in0.3 mm
03:30 PM 59.0°F15.0°C 40.4°F4.7°C 50% 9.2 mph NNW14.8 kmh NNW 13.6 mph21.9 kmh 29.98 in1015.2 mb 0.00 in0.0 mm 0.00 in0.0 mm 0.01 in0.3 mm
03:35 PM 58.5°F14.7°C 40.4°F4.7°C 51% 10.7 mph NNW17.2 kmh NNW 15.2 mph24.5 kmh 29.98 in1015.2 mb 0.00 in0.0 mm 0.00 in0.0 mm 0.01 in0.3 mm
03:40 PM 57.7°F14.3°C 41.2°F5.1°C 54% 6.0 mph N9.7 kmh N 15.2 mph24.5 kmh 29.98 in1015.2 mb 0.00 in0.0 mm 0.00 in0.0 mm 0.01 in0.3 mm
03:45 PM 57.2°F14.0°C 40.7°F4.8°C 54% 9.2 mph N14.8 kmh N 13.6 mph21.9 kmh 29.98 in1015.2 mb 0.00 in0.0 mm 0.00 in0.0 mm 0.01 in0.3 mm
03:50 PM 56.7°F13.7°C 40.7°F4.8°C 55% 7.6 mph N12.2 kmh N 15.2 mph24.5 kmh 29.98 in1015.2 mb 0.00 in0.0 mm 0.00 in0.0 mm 0.01 in0.3 mm
03:55 PM 56.1°F13.4°C 39.7°F4.3°C 54% 8.3 mph N13.4 kmh N 16.8 mph27.0 kmh 29.98 in1015.2 mb 0.00 in0.0 mm 0.00 in0.0 mm 0.01 in0.3 mm
04:00 PM 55.4°F13.0°C 39.0°F3.9°C 54% 6.0 mph N9.7 kmh N 16.8 mph27.0 kmh 29.99 in1015.6 mb 0.00 in0.0 mm 0.00 in0.0 mm 0.01 in0.3 mm
04:05 PM 55.4°F13.0°C 39.0°F3.9°C 54% 6.0 mph N9.7 kmh N 14.5 mph23.3 kmh 29.98 in1015.2 mb 0.00 in0.0 mm 0.00 in0.0 mm 0.01 in0.3 mm
04:10 PM 54.5°F12.5°C 37.2°F2.9°C 52% 4.5 mph N7.2 kmh N 9.8 mph15.8 kmh 29.98 in1015.2 mb 0.00 in0.0 mm 0.00 in0.0 mm 0.01 in0.3 mm
04:15 PM 54.3°F12.4°C 37.6°F3.1°C 53% 6.0 mph N9.7 kmh N 13.6 mph21.9 kmh 29.99 in1015.6 mb 0.00 in0.0 mm 0.00 in0.0 mm 0.01 in0.3 mm
04:20 PM 54.0°F12.2°C 37.2°F2.9°C 53% 3.8 mph N6.1 kmh N 13.6 mph21.9 kmh 29.99 in1015.6 mb 0.00 in0.0 mm 0.00 in0.0 mm 0.01 in0.3 mm
04:25 PM 54.0°F12.2°C 37.7°F3.2°C 54% 4.5 mph NNE7.2 kmh NNE 9.8 mph15.8 kmh 29.99 in1015.6 mb 0.00 in0.0 mm 0.00 in0.0 mm 0.01 in0.3 mm
04:30 PM 53.8°F12.1°C 37.5°F3.1°C 54% 6.0 mph N9.7 kmh N 9.2 mph14.8 kmh 29.99 in1015.6 mb 0.00 in0.0 mm 0.00 in0.0 mm 0.01 in0.3 mm
04:35 PM 53.8°F12.1°C 37.5°F3.1°C 54% 6.0 mph N9.7 kmh N 9.2 mph14.8 kmh 29.99 in1015.6 mb 0.00 in0.0 mm 0.00 in0.0 mm 0.01 in0.3 mm
04:40 PM 53.6°F12.0°C 37.4°F3.0°C 54% 5.4 mph N8.7 kmh N 8.3 mph13.4 kmh 29.99 in1015.6 mb 0.00 in0.0 mm 0.00 in0.0 mm 0.01 in0.3 mm
04:45 PM 53.4°F11.9°C 38.1°F3.4°C 56% 0.7 mph N1.1 kmh N 7.6 mph12.2 kmh 29.99 in1015.6 mb 0.00 in0.0 mm 0.00 in0.0 mm 0.01 in0.3 mm
04:50 PM 53.2°F11.8°C 38.0°F3.3°C 56% 3.8 mph N6.1 kmh N 9.2 mph14.8 kmh 30.00 in1015.9 mb 0.00 in0.0 mm 0.00 in0.0 mm 0.01 in0.3 mm
04:55 PM 53.2°F11.8°C 38.0°F3.3°C 56% 5.4 mph N8.7 kmh N 9.2 mph14.8 kmh 29.99 in1015.6 mb 0.00 in0.0 mm 0.00 in0.0 mm 0.01 in0.3 mm
05:00 PM 53.1°F11.7°C 37.8°F3.2°C 56% 3.8 mph N6.1 kmh N 7.6 mph12.2 kmh 29.99 in1015.6 mb 0.00 in0.0 mm 0.00 in0.0 mm 0.01 in0.3 mm
05:05 PM 53.1°F11.7°C 37.8°F3.2°C 56% 3.1 mph N5.0 kmh N 6.9 mph11.1 kmh 29.99 in1015.6 mb 0.00 in0.0 mm 0.00 in0.0 mm 0.01 in0.3 mm
05:10 PM 52.9°F11.6°C 38.1°F3.4°C 57% 1.6 mph N2.6 kmh N 5.4 mph8.7 kmh 29.99 in1015.6 mb 0.00 in0.0 mm 0.00 in0.0 mm 0.01 in0.3 mm
05:15 PM 52.9°F11.6°C 38.1°F3.4°C 57% 0.7 mph N1.1 kmh N 4.5 mph7.2 kmh 29.99 in1015.6 mb 0.00 in0.0 mm 0.00 in0.0 mm 0.01 in0.3 mm
05:20 PM 52.7°F11.5°C 37.9°F3.3°C 57% 1.6 mph N2.6 kmh N 4.5 mph7.2 kmh 29.99 in1015.6 mb 0.00 in0.0 mm 0.00 in0.0 mm 0.01 in0.3 mm
05:25 PM 52.5°F11.4°C 37.7°F3.2°C 57% 4.5 mph N7.2 kmh N 6.0 mph9.7 kmh 30.00 in1015.9 mb 0.00 in0.0 mm 0.00 in0.0 mm 0.01 in0.3 mm
05:30 PM 52.3°F11.3°C 38.0°F3.3°C 58% 3.8 mph N6.1 kmh N 6.9 mph11.1 kmh 30.00 in1015.9 mb 0.00 in0.0 mm 0.00 in0.0 mm 0.01 in0.3 mm
05:35 PM 52.2°F11.2°C 38.3°F3.5°C 59% 4.5 mph N7.2 kmh N 6.9 mph11.1 kmh 29.99 in1015.6 mb 0.00 in0.0 mm 0.00 in0.0 mm 0.01 in0.3 mm
05:40 PM 52.0°F11.1°C 38.5°F3.6°C 60% 4.5 mph N7.2 kmh N 9.2 mph14.8 kmh 30.00 in1015.9 mb 0.00 in0.0 mm 0.00 in0.0 mm 0.01 in0.3 mm
05:45 PM 51.6°F10.9°C 38.6°F3.7°C 61% 3.8 mph N6.1 kmh N 9.2 mph14.8 kmh 30.00 in1015.9 mb 0.00 in0.0 mm 0.00 in0.0 mm 0.01 in0.3 mm
05:50 PM 51.4°F10.8°C 38.4°F3.6°C 61% 2.2 mph N3.5 kmh N 6.9 mph11.1 kmh 30.00 in1015.9 mb 0.00 in0.0 mm 0.00 in0.0 mm 0.01 in0.3 mm
05:55 PM 51.3°F10.7°C 38.3°F3.5°C 61% Calm Calm 5.4 mph8.7 kmh 29.99 in1015.6 mb 0.00 in0.0 mm 0.00 in0.0 mm 0.01 in0.3 mm
06:00 PM 51.1°F10.6°C 38.1°F3.4°C 61% 0.7 mph NNE1.1 kmh NNE 3.8 mph6.1 kmh 29.99 in1015.6 mb 0.00 in0.0 mm 0.00 in0.0 mm 0.01 in0.3 mm
06:05 PM 51.1°F10.6°C 38.5°F3.6°C 62% 1.6 mph N2.6 kmh N 2.2 mph3.5 kmh 30.00 in1015.9 mb 0.00 in0.0 mm 0.00 in0.0 mm 0.01 in0.3 mm
06:10 PM 50.4°F10.2°C 38.3°F3.5°C 63% 2.2 mph NNW3.5 kmh NNW 3.8 mph6.1 kmh 30.01 in1016.3 mb 0.00 in0.0 mm 0.00 in0.0 mm 0.01 in0.3 mm
06:15 PM 50.2°F10.1°C 38.1°F3.4°C 63% 1.6 mph W2.6 kmh W 3.8 mph6.1 kmh 30.01 in1016.3 mb 0.00 in0.0 mm 0.00 in0.0 mm 0.01 in0.3 mm
06:20 PM 49.8°F9.9°C 38.5°F3.6°C 65% 1.6 mph W2.6 kmh W 3.8 mph6.1 kmh 30.01 in1016.3 mb 0.00 in0.0 mm 0.00 in0.0 mm 0.01 in0.3 mm
06:25 PM 49.3°F9.6°C 38.8°F3.8°C 67% 1.6 mph WNW2.6 kmh WNW 3.8 mph6.1 kmh 30.01 in1016.3 mb 0.00 in0.0 mm 0.00 in0.0 mm 0.01 in0.3 mm
06:30 PM 48.7°F9.3°C 38.7°F3.7°C 68% 1.6 mph WNW2.6 kmh WNW 3.1 mph5.0 kmh 30.01 in1016.3 mb 0.00 in0.0 mm 0.00 in0.0 mm 0.01 in0.3 mm
06:35 PM 48.2°F9.0°C 38.9°F3.8°C 70% 1.6 mph WNW2.6 kmh WNW 3.8 mph6.1 kmh 30.02 in1016.6 mb 0.00 in0.0 mm 0.00 in0.0 mm 0.01 in0.3 mm
06:40 PM 47.8°F8.8°C 39.3°F4.1°C 72% 3.1 mph NW5.0 kmh NW 5.4 mph8.7 kmh 30.02 in1016.6 mb 0.00 in0.0 mm 0.00 in0.0 mm 0.01 in0.3 mm
06:45 PM 47.5°F8.6°C 39.3°F4.1°C 73% 0.7 mph NW1.1 kmh NW 5.4 mph8.7 kmh 30.02 in1016.6 mb 0.00 in0.0 mm 0.00 in0.0 mm 0.01 in0.3 mm
06:50 PM 47.3°F8.5°C 39.1°F3.9°C 73% 3.1 mph NW5.0 kmh NW 5.4 mph8.7 kmh 30.02 in1016.6 mb 0.00 in0.0 mm 0.00 in0.0 mm 0.01 in0.3 mm
06:55 PM 46.9°F8.3°C 39.1°F3.9°C 74% 1.6 mph WNW2.6 kmh WNW 4.5 mph7.2 kmh 30.02 in1016.6 mb 0.00 in0.0 mm 0.00 in0.0 mm 0.01 in0.3 mm
07:00 PM 46.9°F8.3°C 39.4°F4.1°C 75% Calm Calm 4.5 mph7.2 kmh 30.02 in1016.6 mb 0.00 in0.0 mm 0.00 in0.0 mm 0.01 in0.3 mm
07:05 PM 46.8°F8.2°C 39.3°F4.1°C 75% 0.7 mph WSW1.1 kmh WSW 3.1 mph5.0 kmh 30.02 in1016.6 mb 0.00 in0.0 mm 0.00 in0.0 mm 0.01 in0.3 mm
07:10 PM 46.8°F8.2°C 39.3°F4.1°C 75% 1.6 mph SW2.6 kmh SW 3.1 mph5.0 kmh 30.02 in1016.6 mb 0.00 in0.0 mm 0.00 in0.0 mm 0.01 in0.3 mm
07:15 PM 46.6°F8.1°C 39.1°F3.9°C 75% 2.2 mph S3.5 kmh S 3.8 mph6.1 kmh 30.02 in1016.6 mb 0.00 in0.0 mm 0.00 in0.0 mm 0.01 in0.3 mm
07:20 PM 46.8°F8.2°C 39.6°F4.2°C 76% 2.2 mph S3.5 kmh S 4.5 mph7.2 kmh 30.02 in1016.6 mb 0.00 in0.0 mm 0.00 in0.0 mm 0.01 in0.3 mm
07:25 PM 46.8°F8.2°C 39.6°F4.2°C 76% 1.6 mph S2.6 kmh S 4.5 mph7.2 kmh 30.02 in1016.6 mb 0.00 in0.0 mm 0.00 in0.0 mm 0.01 in0.3 mm
07:30 PM 46.6°F8.1°C 39.4°F4.1°C 76% 0.7 mph S1.1 kmh S 4.5 mph7.2 kmh 30.02 in1016.6 mb 0.00 in0.0 mm 0.00 in0.0 mm 0.01 in0.3 mm
07:35 PM 46.6°F8.1°C 39.4°F4.1°C 76% 0.7 mph SSW1.1 kmh SSW 4.5 mph7.2 kmh 30.02 in1016.6 mb 0.00 in0.0 mm 0.00 in0.0 mm 0.01 in0.3 mm
07:40 PM 46.0°F7.8°C 39.2°F4.0°C 77% Calm Calm 3.8 mph6.1 kmh 30.02 in1016.6 mb 0.00 in0.0 mm 0.00 in0.0 mm 0.01 in0.3 mm
07:45 PM 46.0°F7.8°C 39.2°F4.0°C 77% 0.7 mph WSW1.1 kmh WSW 3.1 mph5.0 kmh 30.02 in1016.6 mb 0.00 in0.0 mm 0.00 in0.0 mm 0.01 in0.3 mm
07:50 PM 45.7°F7.6°C 39.2°F4.0°C 78% 1.6 mph WSW2.6 kmh WSW 3.8 mph6.1 kmh 30.02 in1016.6 mb 0.00 in0.0 mm 0.00 in0.0 mm 0.01 in0.3 mm
07:55 PM 45.5°F7.5°C 39.0°F3.9°C 78% 0.7 mph WSW1.1 kmh WSW 3.8 mph6.1 kmh 30.03 in1016.9 mb 0.00 in0.0 mm 0.00 in0.0 mm 0.01 in0.3 mm
08:00 PM 45.1°F7.3°C 38.7°F3.7°C 78% 0.7 mph WSW1.1 kmh WSW 3.1 mph5.0 kmh 30.02 in1016.6 mb 0.00 in0.0 mm 0.00 in0.0 mm 0.01 in0.3 mm
08:05 PM 44.8°F7.1°C 38.7°F3.7°C 79% 1.6 mph WNW2.6 kmh WNW 3.1 mph5.0 kmh 30.03 in1016.9 mb 0.00 in0.0 mm 0.00 in0.0 mm 0.01 in0.3 mm
08:10 PM 44.2°F6.8°C 38.5°F3.6°C 80% Calm Calm 3.1 mph5.0 kmh 30.02 in1016.6 mb 0.00 in0.0 mm 0.00 in0.0 mm 0.01 in0.3 mm
08:15 PM 43.7°F6.5°C 38.3°F3.5°C 81% 1.6 mph NNW2.6 kmh NNW 2.2 mph3.5 kmh 30.02 in1016.6 mb 0.00 in0.0 mm 0.00 in0.0 mm 0.01 in0.3 mm
08:20 PM 43.3°F6.3°C 38.2°F3.4°C 82% Calm Calm 2.2 mph3.5 kmh 30.03 in1016.9 mb 0.00 in0.0 mm 0.00 in0.0 mm 0.01 in0.3 mm
08:25 PM 42.8°F6.0°C 37.7°F3.2°C 82% 2.2 mph E3.5 kmh E 3.8 mph6.1 kmh 30.02 in1016.6 mb 0.00 in0.0 mm 0.00 in0.0 mm 0.01 in0.3 mm
08:30 PM 42.4°F5.8°C 38.0°F3.3°C 84% 1.6 mph SE2.6 kmh SE 3.8 mph6.1 kmh 30.03 in1016.9 mb 0.00 in0.0 mm 0.00 in0.0 mm 0.01 in0.3 mm
08:35 PM 42.4°F5.8°C 38.0°F3.3°C 84% 0.7 mph SSE1.1 kmh SSE 3.1 mph5.0 kmh 30.02 in1016.6 mb 0.00 in0.0 mm 0.00 in0.0 mm 0.01 in0.3 mm
08:40 PM 42.3°F5.7°C 38.1°F3.4°C 85% Calm Calm 2.2 mph3.5 kmh 30.02 in1016.6 mb 0.00 in0.0 mm 0.00 in0.0 mm 0.01 in0.3 mm
08:45 PM 42.1°F5.6°C 37.9°F3.3°C 85% 2.2 mph N3.5 kmh N 3.1 mph5.0 kmh 30.04 in1017.3 mb 0.00 in0.0 mm 0.00 in0.0 mm 0.01 in0.3 mm
08:50 PM 41.9°F5.5°C 38.0°F3.3°C 86% Calm Calm 3.1 mph5.0 kmh 30.04 in1017.3 mb 0.00 in0.0 mm 0.00 in0.0 mm 0.01 in0.3 mm
08:55 PM 41.7°F5.4°C 37.8°F3.2°C 86% Calm Calm 4.5 mph7.2 kmh 30.03 in1016.9 mb 0.00 in0.0 mm 0.00 in0.0 mm 0.01 in0.3 mm
09:00 PM 41.5°F5.3°C 37.7°F3.2°C 86% Calm Calm 4.5 mph7.2 kmh 30.04 in1017.3 mb 0.00 in0.0 mm 0.00 in0.0 mm 0.01 in0.3 mm
09:05 PM 41.2°F5.1°C 37.6°F3.1°C 87% Calm Calm 3.1 mph5.0 kmh 30.04 in1017.3 mb 0.00 in0.0 mm 0.00 in0.0 mm 0.01 in0.3 mm
09:10 PM 41.0°F5.0°C 37.4°F3.0°C 87% 0.7 mph NNE1.1 kmh NNE 3.1 mph5.0 kmh 30.04 in1017.3 mb 0.00 in0.0 mm 0.00 in0.0 mm 0.01 in0.3 mm
09:15 PM 40.8°F4.9°C 37.5°F3.1°C 88% 0.7 mph N1.1 kmh N 2.2 mph3.5 kmh 30.04 in1017.3 mb 0.00 in0.0 mm 0.00 in0.0 mm 0.01 in0.3 mm
09:20 PM 40.8°F4.9°C 37.5°F3.1°C 88% 1.6 mph NE2.6 kmh NE 2.2 mph3.5 kmh 30.04 in1017.3 mb 0.00 in0.0 mm 0.00 in0.0 mm 0.01 in0.3 mm
09:25 PM 40.8°F4.9°C 37.8°F3.2°C 89% Calm Calm 2.2 mph3.5 kmh 30.05 in1017.6 mb 0.00 in0.0 mm 0.00 in0.0 mm 0.01 in0.3 mm
09:30 PM 40.8°F4.9°C 38.1°F3.4°C 90% 0.7 mph NE1.1 kmh NE 2.2 mph3.5 kmh 30.05 in1017.6 mb 0.00 in0.0 mm 0.00 in0.0 mm 0.01 in0.3 mm
09:35 PM 40.8°F4.9°C 38.1°F3.4°C 90% Calm Calm 1.6 mph2.6 kmh 30.05 in1017.6 mb 0.00 in0.0 mm 0.00 in0.0 mm 0.01 in0.3 mm
09:40 PM 40.8°F4.9°C 38.1°F3.4°C 90% 1.6 mph NE2.6 kmh NE 2.2 mph3.5 kmh 30.05 in1017.6 mb 0.00 in0.0 mm 0.00 in0.0 mm 0.01 in0.3 mm
09:45 PM 40.8°F4.9°C 38.4°F3.6°C 91% 0.7 mph SE1.1 kmh SE 2.2 mph3.5 kmh 30.05 in1017.6 mb 0.00 in0.0 mm 0.00 in0.0 mm 0.01 in0.3 mm
09:50 PM 41.0°F5.0°C 38.3°F3.5°C 90% Calm Calm 2.2 mph3.5 kmh 30.05 in1017.6 mb 0.00 in0.0 mm 0.00 in0.0 mm 0.01 in0.3 mm
09:55 PM 41.0°F5.0°C 38.6°F3.7°C 91% 0.7 mph E1.1 kmh E 2.2 mph3.5 kmh 30.03 in1016.9 mb 0.00 in0.0 mm 0.00 in0.0 mm 0.01 in0.3 mm
10:00 PM 41.2°F5.1°C 38.8°F3.8°C 91% 0.7 mph E1.1 kmh E 2.2 mph3.5 kmh 30.04 in1017.3 mb 0.00 in0.0 mm 0.00 in0.0 mm 0.01 in0.3 mm
10:05 PM 41.2°F5.1°C 38.8°F3.8°C 91% 0.7 mph NNE1.1 kmh NNE 2.2 mph3.5 kmh 30.04 in1017.3 mb 0.00 in0.0 mm 0.00 in0.0 mm 0.01 in0.3 mm
10:10 PM 41.2°F5.1°C 39.0°F3.9°C 92% 0.7 mph N1.1 kmh N 1.6 mph2.6 kmh 30.04 in1017.3 mb 0.00 in0.0 mm 0.00 in0.0 mm 0.01 in0.3 mm
10:15 PM 41.0°F5.0°C 38.9°F3.8°C 92% Calm Calm 2.2 mph3.5 kmh 30.04 in1017.3 mb 0.00 in0.0 mm 0.00 in0.0 mm 0.01 in0.3 mm
10:20 PM 41.0°F5.0°C 38.9°F3.8°C 92% 1.6 mph W2.6 kmh W 2.2 mph3.5 kmh 30.04 in1017.3 mb 0.00 in0.0 mm 0.00 in0.0 mm 0.01 in0.3 mm
10:25 PM 40.8°F4.9°C 39.0°F3.9°C 93% Calm Calm 2.2 mph3.5 kmh 30.05 in1017.6 mb 0.00 in0.0 mm 0.00 in0.0 mm 0.01 in0.3 mm
10:30 PM 40.6°F4.8°C 38.8°F3.8°C 93% Calm Calm 2.2 mph3.5 kmh 30.04 in1017.3 mb 0.00 in0.0 mm 0.00 in0.0 mm 0.01 in0.3 mm
10:35 PM 40.6°F4.8°C 38.8°F3.8°C 93% Calm Calm 1.6 mph2.6 kmh 30.04 in1017.3 mb 0.00 in0.0 mm 0.00 in0.0 mm 0.01 in0.3 mm
10:40 PM 40.5°F4.7°C 38.6°F3.7°C 93% 0.7 mph WNW1.1 kmh WNW 1.6 mph2.6 kmh 30.04 in1017.3 mb 0.00 in0.0 mm 0.00 in0.0 mm 0.01 in0.3 mm
10:45 PM 40.3°F4.6°C 38.4°F3.6°C 93% Calm Calm 1.6 mph2.6 kmh 30.04 in1017.3 mb 0.00 in0.0 mm 0.00 in0.0 mm 0.01 in0.3 mm
10:50 PM 40.1°F4.5°C 38.2°F3.4°C 93% Calm Calm 1.6 mph2.6 kmh 30.04 in1017.3 mb 0.00 in0.0 mm 0.00 in0.0 mm 0.01 in0.3 mm
10:55 PM 40.1°F4.5°C 38.2°F3.4°C 93% 1.6 mph NW2.6 kmh NW 2.2 mph3.5 kmh 30.05 in1017.6 mb 0.00 in0.0 mm 0.00 in0.0 mm 0.01 in0.3 mm
11:00 PM 39.9°F4.4°C 38.3°F3.5°C 94% Calm Calm 2.2 mph3.5 kmh 30.06 in1017.9 mb 0.00 in0.0 mm 0.00 in0.0 mm 0.01 in0.3 mm
11:05 PM 39.7°F4.3°C 38.2°F3.4°C 94% Calm Calm 2.2 mph3.5 kmh 30.05 in1017.6 mb 0.00 in0.0 mm 0.00 in0.0 mm 0.01 in0.3 mm
11:10 PM 39.6°F4.2°C 38.0°F3.3°C 94% Calm Calm 0.7 mph1.1 kmh 30.05 in1017.6 mb 0.00 in0.0 mm 0.00 in0.0 mm 0.01 in0.3 mm
11:15 PM 39.6°F4.2°C 38.0°F3.3°C 94% Calm Calm 1.6 mph2.6 kmh 30.05 in1017.6 mb 0.00 in0.0 mm 0.00 in0.0 mm 0.01 in0.3 mm
11:20 PM 39.7°F4.3°C 38.2°F3.4°C 94% 3.8 mph WSW6.1 kmh WSW 5.4 mph8.7 kmh 30.04 in1017.3 mb 0.00 in0.0 mm 0.00 in0.0 mm 0.01 in0.3 mm
11:25 PM 39.9°F4.4°C 38.3°F3.5°C 94% 3.1 mph WSW5.0 kmh WSW 6.0 mph9.7 kmh 30.04 in1017.3 mb 0.00 in0.0 mm 0.00 in0.0 mm 0.01 in0.3 mm
11:30 PM 40.8°F4.9°C 39.5°F4.2°C 95% 3.1 mph WSW5.0 kmh WSW 7.6 mph12.2 kmh 30.05 in1017.6 mb 0.00 in0.0 mm 0.00 in0.0 mm 0.01 in0.3 mm
11:35 PM 41.5°F5.3°C 39.9°F4.4°C 94% 3.8 mph WSW6.1 kmh WSW 7.6 mph12.2 kmh 30.04 in1017.3 mb 0.00 in0.0 mm 0.00 in0.0 mm 0.01 in0.3 mm
11:40 PM 42.3°F5.7°C 40.4°F4.7°C 93% 5.4 mph W8.7 kmh W 7.6 mph12.2 kmh 30.04 in1017.3 mb 0.00 in0.0 mm 0.00 in0.0 mm 0.01 in0.3 mm
11:45 PM 43.0°F6.1°C 40.5°F4.7°C 91% 3.8 mph WSW6.1 kmh WSW 9.2 mph14.8 kmh 30.04 in1017.3 mb 0.00 in0.0 mm 0.00 in0.0 mm 0.01 in0.3 mm
11:50 PM 43.3°F6.3°C 40.3°F4.6°C 89% 3.1 mph SW5.0 kmh SW 9.2 mph14.8 kmh 30.04 in1017.3 mb 0.00 in0.0 mm 0.00 in0.0 mm 0.01 in0.3 mm
11:55 PM 43.5°F6.4°C 39.9°F4.4°C 87% 3.1 mph W5.0 kmh W 7.6 mph12.2 kmh 30.04 in1017.3 mb 0.00 in0.0 mm 0.00 in0.0 mm 0.01 in0.3 mm